sensor_id;sensor_type;location;lat;lon;timestamp;P1;durP1;ratioP1;P2;durP2;ratioP2
75005;SDS011;63553;51.814;4.600;2023-03-12T00:02:02;1.90;;;1.77;;
75005;SDS011;63553;51.814;4.600;2023-03-12T00:04:27;1.95;;;1.65;;
75005;SDS011;63553;51.814;4.600;2023-03-12T00:06:53;2.85;;;2.00;;
75005;SDS011;63553;51.814;4.600;2023-03-12T00:09:18;1.92;;;1.80;;
75005;SDS011;63553;51.814;4.600;2023-03-12T00:11:43;1.70;;;1.60;;
75005;SDS011;63553;51.814;4.600;2023-03-12T00:14:09;1.40;;;1.30;;
75005;SDS011;63553;51.814;4.600;2023-03-12T00:16:34;2.47;;;2.00;;
75005;SDS011;63553;51.814;4.600;2023-03-12T00:19:00;1.97;;;1.70;;
75005;SDS011;63553;51.814;4.600;2023-03-12T00:21:25;2.42;;;1.90;;
75005;SDS011;63553;51.814;4.600;2023-03-12T00:23:51;1.80;;;1.70;;
75005;SDS011;63553;51.814;4.600;2023-03-12T00:26:18;1.92;;;1.77;;
75005;SDS011;63553;51.814;4.600;2023-03-12T00:28:45;2.33;;;1.65;;
75005;SDS011;63553;51.814;4.600;2023-03-12T00:31:16;2.13;;;1.92;;
75005;SDS011;63553;51.814;4.600;2023-03-12T00:33:44;2.20;;;1.67;;
75005;SDS011;63553;51.814;4.600;2023-03-12T00:36:09;1.95;;;1.73;;
75005;SDS011;63553;51.814;4.600;2023-03-12T00:38:35;2.65;;;1.73;;
75005;SDS011;63553;51.814;4.600;2023-03-12T00:41:01;2.53;;;1.60;;
75005;SDS011;63553;51.814;4.600;2023-03-12T00:43:26;2.45;;;1.85;;
75005;SDS011;63553;51.814;4.600;2023-03-12T00:45:51;3.97;;;1.70;;
75005;SDS011;63553;51.814;4.600;2023-03-12T00:48:17;1.90;;;1.80;;
75005;SDS011;63553;51.814;4.600;2023-03-12T00:50:42;1.80;;;1.70;;
75005;SDS011;63553;51.814;4.600;2023-03-12T00:53:07;2.60;;;1.70;;
75005;SDS011;63553;51.814;4.600;2023-03-12T00:55:33;1.97;;;1.80;;
75005;SDS011;63553;51.814;4.600;2023-03-12T00:57:58;1.80;;;1.70;;
75005;SDS011;63553;51.814;4.600;2023-03-12T01:00:23;1.93;;;1.53;;
75005;SDS011;63553;51.814;4.600;2023-03-12T01:02:49;2.88;;;1.80;;
75005;SDS011;63553;51.814;4.600;2023-03-12T01:05:14;1.20;;;1.20;;
75005;SDS011;63553;51.814;4.600;2023-03-12T01:07:40;1.85;;;1.70;;
75005;SDS011;63553;51.814;4.600;2023-03-12T01:10:06;1.75;;;1.60;;
75005;SDS011;63553;51.814;4.600;2023-03-12T01:12:32;1.75;;;1.65;;
75005;SDS011;63553;51.814;4.600;2023-03-12T01:14:57;3.08;;;1.80;;
75005;SDS011;63553;51.814;4.600;2023-03-12T01:17:23;1.70;;;1.60;;
75005;SDS011;63553;51.814;4.600;2023-03-12T01:19:48;2.07;;;1.73;;
75005;SDS011;63553;51.814;4.600;2023-03-12T01:22:13;1.80;;;1.70;;
75005;SDS011;63553;51.814;4.600;2023-03-12T01:24:39;1.90;;;1.80;;
75005;SDS011;63553;51.814;4.600;2023-03-12T01:27:04;1.95;;;1.80;;
75005;SDS011;63553;51.814;4.600;2023-03-12T01:29:29;2.03;;;1.83;;
75005;SDS011;63553;51.814;4.600;2023-03-12T01:31:55;2.83;;;1.63;;
75005;SDS011;63553;51.814;4.600;2023-03-12T01:34:20;1.67;;;1.57;;
75005;SDS011;63553;51.814;4.600;2023-03-12T01:36:45;2.13;;;1.50;;
75005;SDS011;63553;51.814;4.600;2023-03-12T01:39:12;1.80;;;1.70;;
75005;SDS011;63553;51.814;4.600;2023-03-12T01:41:38;1.70;;;1.45;;
75005;SDS011;63553;51.814;4.600;2023-03-12T01:44:04;2.70;;;1.70;;
75005;SDS011;63553;51.814;4.600;2023-03-12T01:51:31;1.88;;;1.75;;
75005;SDS011;63553;51.814;4.600;2023-03-12T01:54:01;2.33;;;1.55;;
75005;SDS011;63553;51.814;4.600;2023-03-12T01:56:31;1.90;;;1.65;;
75005;SDS011;63553;51.814;4.600;2023-03-12T01:58:59;1.58;;;1.48;;
75005;SDS011;63553;51.814;4.600;2023-03-12T02:01:31;2.10;;;1.90;;
75005;SDS011;63553;51.814;4.600;2023-03-12T02:03:57;1.73;;;1.60;;
75005;SDS011;63553;51.814;4.600;2023-03-12T02:06:30;2.20;;;1.67;;
75005;SDS011;63553;51.814;4.600;2023-03-12T02:09:00;2.00;;;1.67;;
75005;SDS011;63553;51.814;4.600;2023-03-12T02:11:29;2.60;;;1.88;;
75005;SDS011;63553;51.814;4.600;2023-03-12T02:13:55;2.10;;;1.67;;
75005;SDS011;63553;51.814;4.600;2023-03-12T02:16:20;2.47;;;1.80;;
75005;SDS011;63553;51.814;4.600;2023-03-12T02:18:46;1.67;;;1.57;;
75005;SDS011;63553;51.814;4.600;2023-03-12T02:21:15;2.38;;;1.95;;
75005;SDS011;63553;51.814;4.600;2023-03-12T02:23:56;1.60;;;1.50;;
75005;SDS011;63553;51.814;4.600;2023-03-12T02:26:29;1.70;;;1.50;;
75005;SDS011;63553;51.814;4.600;2023-03-12T02:28:55;1.85;;;1.70;;
75005;SDS011;63553;51.814;4.600;2023-03-12T02:31:24;3.03;;;1.80;;
75005;SDS011;63553;51.814;4.600;2023-03-12T02:33:53;2.78;;;1.80;;
75005;SDS011;63553;51.814;4.600;2023-03-12T02:36:20;3.45;;;1.83;;
75005;SDS011;63553;51.814;4.600;2023-03-12T02:38:46;1.92;;;1.80;;
75005;SDS011;63553;51.814;4.600;2023-03-12T02:46:24;1.60;;;1.50;;
75005;SDS011;63553;51.814;4.600;2023-03-12T02:48:50;2.30;;;1.80;;
75005;SDS011;63553;51.814;4.600;2023-03-12T02:51:17;2.35;;;1.67;;
75005;SDS011;63553;51.814;4.600;2023-03-12T02:53:43;1.80;;;1.70;;
75005;SDS011;63553;51.814;4.600;2023-03-12T02:56:08;1.90;;;1.80;;
75005;SDS011;63553;51.814;4.600;2023-03-12T02:58:33;2.40;;;2.00;;
75005;SDS011;63553;51.814;4.600;2023-03-12T03:00:59;2.38;;;2.10;;
75005;SDS011;63553;51.814;4.600;2023-03-12T03:03:24;1.70;;;1.60;;
75005;SDS011;63553;51.814;4.600;2023-03-12T03:05:49;2.10;;;1.90;;
75005;SDS011;63553;51.814;4.600;2023-03-12T03:08:16;2.10;;;1.75;;
75005;SDS011;63553;51.814;4.600;2023-03-12T03:10:41;2.97;;;1.80;;
75005;SDS011;63553;51.814;4.600;2023-03-12T03:13:06;2.00;;;1.77;;
75005;SDS011;63553;51.814;4.600;2023-03-12T03:15:32;2.55;;;1.83;;
75005;SDS011;63553;51.814;4.600;2023-03-12T03:17:57;1.95;;;1.83;;
75005;SDS011;63553;51.814;4.600;2023-03-12T03:20:23;2.25;;;1.83;;
75005;SDS011;63553;51.814;4.600;2023-03-12T03:22:50;2.35;;;1.80;;
75005;SDS011;63553;51.814;4.600;2023-03-12T03:25:16;2.63;;;1.90;;
75005;SDS011;63553;51.814;4.600;2023-03-12T03:27:42;1.80;;;1.70;;
75005;SDS011;63553;51.814;4.600;2023-03-12T03:30:08;3.53;;;2.00;;
75005;SDS011;63553;51.814;4.600;2023-03-12T03:32:37;3.05;;;1.98;;
75005;SDS011;63553;51.814;4.600;2023-03-12T03:35:02;2.03;;;1.83;;
75005;SDS011;63553;51.814;4.600;2023-03-12T03:37:28;2.45;;;2.25;;
75005;SDS011;63553;51.814;4.600;2023-03-12T03:39:53;2.13;;;1.80;;
75005;SDS011;63553;51.814;4.600;2023-03-12T03:42:19;2.30;;;2.00;;
75005;SDS011;63553;51.814;4.600;2023-03-12T03:44:44;1.73;;;1.60;;
75005;SDS011;63553;51.814;4.600;2023-03-12T03:47:09;1.73;;;1.63;;
75005;SDS011;63553;51.814;4.600;2023-03-12T03:49:35;2.30;;;1.90;;
75005;SDS011;63553;51.814;4.600;2023-03-12T03:52:00;2.57;;;1.53;;
75005;SDS011;63553;51.814;4.600;2023-03-12T03:54:25;1.70;;;1.60;;
75005;SDS011;63553;51.814;4.600;2023-03-12T03:56:51;2.47;;;1.80;;
75005;SDS011;63553;51.814;4.600;2023-03-12T03:59:16;2.20;;;2.00;;
75005;SDS011;63553;51.814;4.600;2023-03-12T04:01:41;2.05;;;1.70;;
75005;SDS011;63553;51.814;4.600;2023-03-12T04:04:07;4.07;;;1.67;;
75005;SDS011;63553;51.814;4.600;2023-03-12T04:06:32;1.77;;;1.67;;
75005;SDS011;63553;51.814;4.600;2023-03-12T04:08:57;1.58;;;1.45;;
75005;SDS011;63553;51.814;4.600;2023-03-12T04:11:23;2.30;;;2.10;;
75005;SDS011;63553;51.814;4.600;2023-03-12T04:13:48;1.67;;;1.58;;
75005;SDS011;63553;51.814;4.600;2023-03-12T04:16:14;2.15;;;1.95;;
75005;SDS011;63553;51.814;4.600;2023-03-12T04:18:41;2.45;;;1.77;;
75005;SDS011;63553;51.814;4.600;2023-03-12T04:21:08;2.35;;;1.70;;
75005;SDS011;63553;51.814;4.600;2023-03-12T04:23:34;3.22;;;1.90;;
75005;SDS011;63553;51.814;4.600;2023-03-12T04:26:01;2.10;;;1.88;;
75005;SDS011;63553;51.814;4.600;2023-03-12T04:28:26;3.83;;;1.83;;
75005;SDS011;63553;51.814;4.600;2023-03-12T04:30:58;1.87;;;1.77;;
75005;SDS011;63553;51.814;4.600;2023-03-12T04:33:26;2.58;;;2.05;;
75005;SDS011;63553;51.814;4.600;2023-03-12T04:35:52;2.10;;;1.90;;
75005;SDS011;63553;51.814;4.600;2023-03-12T04:38:21;2.15;;;1.95;;
75005;SDS011;63553;51.814;4.600;2023-03-12T04:41:00;2.25;;;1.85;;
75005;SDS011;63553;51.814;4.600;2023-03-12T04:43:27;2.13;;;1.80;;
75005;SDS011;63553;51.814;4.600;2023-03-12T04:45:53;2.65;;;1.85;;
75005;SDS011;63553;51.814;4.600;2023-03-12T04:48:19;2.45;;;1.60;;
75005;SDS011;63553;51.814;4.600;2023-03-12T04:50:44;2.28;;;2.08;;
75005;SDS011;63553;51.814;4.600;2023-03-12T04:53:10;2.08;;;1.88;;
75005;SDS011;63553;51.814;4.600;2023-03-12T04:55:35;2.13;;;1.90;;
75005;SDS011;63553;51.814;4.600;2023-03-12T04:58:00;2.63;;;2.20;;
75005;SDS011;63553;51.814;4.600;2023-03-12T05:00:26;2.28;;;2.08;;
75005;SDS011;63553;51.814;4.600;2023-03-12T05:02:51;2.90;;;1.70;;
75005;SDS011;63553;51.814;4.600;2023-03-12T05:05:17;3.20;;;2.03;;
75005;SDS011;63553;51.814;4.600;2023-03-12T05:07:43;2.05;;;1.90;;
75005;SDS011;63553;51.814;4.600;2023-03-12T05:10:08;1.87;;;1.77;;
75005;SDS011;63553;51.814;4.600;2023-03-12T05:12:34;1.80;;;1.70;;
75005;SDS011;63553;51.814;4.600;2023-03-12T05:14:59;2.37;;;2.00;;
75005;SDS011;63553;51.814;4.600;2023-03-12T05:17:24;2.47;;;1.80;;
75005;SDS011;63553;51.814;4.600;2023-03-12T05:19:50;1.70;;;1.60;;
75005;SDS011;63553;51.814;4.600;2023-03-12T05:22:16;1.85;;;1.50;;
75005;SDS011;63553;51.814;4.600;2023-03-12T05:24:41;1.90;;;1.65;;
75005;SDS011;63553;51.814;4.600;2023-03-12T05:27:06;1.70;;;1.60;;
75005;SDS011;63553;51.814;4.600;2023-03-12T05:29:32;2.17;;;1.80;;
75005;SDS011;63553;51.814;4.600;2023-03-12T05:31:59;3.17;;;1.80;;
75005;SDS011;63553;51.814;4.600;2023-03-12T05:34:26;2.38;;;1.90;;
75005;SDS011;63553;51.814;4.600;2023-03-12T05:36:52;3.08;;;1.83;;
75005;SDS011;63553;51.814;4.600;2023-03-12T05:39:18;2.70;;;2.00;;
75005;SDS011;63553;51.814;4.600;2023-03-12T05:41:43;1.70;;;1.60;;
75005;SDS011;63553;51.814;4.600;2023-03-12T05:44:09;3.30;;;1.80;;
75005;SDS011;63553;51.814;4.600;2023-03-12T05:46:37;1.50;;;1.40;;
75005;SDS011;63553;51.814;4.600;2023-03-12T05:49:02;2.77;;;1.60;;
75005;SDS011;63553;51.814;4.600;2023-03-12T05:51:28;1.63;;;1.53;;
75005;SDS011;63553;51.814;4.600;2023-03-12T05:53:53;1.50;;;1.40;;
75005;SDS011;63553;51.814;4.600;2023-03-12T05:56:18;2.93;;;1.50;;
75005;SDS011;63553;51.814;4.600;2023-03-12T05:58:44;2.17;;;1.60;;
75005;SDS011;63553;51.814;4.600;2023-03-12T06:01:19;1.65;;;1.50;;
75005;SDS011;63553;51.814;4.600;2023-03-12T06:03:46;1.88;;;1.65;;
75005;SDS011;63553;51.814;4.600;2023-03-12T06:06:12;2.72;;;1.80;;
75005;SDS011;63553;51.814;4.600;2023-03-12T06:08:38;2.17;;;2.03;;
75005;SDS011;63553;51.814;4.600;2023-03-12T06:11:04;3.05;;;1.75;;
75005;SDS011;63553;51.814;4.600;2023-03-12T06:13:30;1.87;;;1.70;;
75005;SDS011;63553;51.814;4.600;2023-03-12T06:16:00;1.60;;;1.50;;
75005;SDS011;63553;51.814;4.600;2023-03-12T06:18:30;1.70;;;1.60;;
75005;SDS011;63553;51.814;4.600;2023-03-12T06:21:07;2.00;;;1.90;;
75005;SDS011;63553;51.814;4.600;2023-03-12T06:23:36;2.20;;;1.65;;
75005;SDS011;63553;51.814;4.600;2023-03-12T06:26:02;2.08;;;1.52;;
75005;SDS011;63553;51.814;4.600;2023-03-12T06:28:27;1.80;;;1.40;;
75005;SDS011;63553;51.814;4.600;2023-03-12T06:30:53;1.40;;;1.30;;
75005;SDS011;63553;51.814;4.600;2023-03-12T06:33:20;1.92;;;1.83;;
75005;SDS011;63553;51.814;4.600;2023-03-12T06:35:45;1.63;;;1.52;;
75005;SDS011;63553;51.814;4.600;2023-03-12T06:38:11;1.85;;;1.40;;
75005;SDS011;63553;51.814;4.600;2023-03-12T06:40:36;1.40;;;1.30;;
75005;SDS011;63553;51.814;4.600;2023-03-12T06:43:01;2.78;;;1.65;;
75005;SDS011;63553;51.814;4.600;2023-03-12T06:45:27;1.40;;;1.30;;
75005;SDS011;63553;51.814;4.600;2023-03-12T06:47:52;2.50;;;1.73;;
75005;SDS011;63553;51.814;4.600;2023-03-12T06:50:18;1.98;;;1.40;;
75005;SDS011;63553;51.814;4.600;2023-03-12T06:52:43;1.67;;;1.48;;
75005;SDS011;63553;51.814;4.600;2023-03-12T06:55:09;1.67;;;1.57;;
75005;SDS011;63553;51.814;4.600;2023-03-12T06:57:34;2.13;;;1.58;;
75005;SDS011;63553;51.814;4.600;2023-03-12T06:59:59;1.63;;;1.53;;
75005;SDS011;63553;51.814;4.600;2023-03-12T07:02:25;1.73;;;1.63;;
75005;SDS011;63553;51.814;4.600;2023-03-12T07:04:50;1.73;;;1.63;;
75005;SDS011;63553;51.814;4.600;2023-03-12T07:07:16;1.30;;;1.20;;
75005;SDS011;63553;51.814;4.600;2023-03-12T07:09:42;2.03;;;1.70;;
75005;SDS011;63553;51.814;4.600;2023-03-12T07:12:07;1.50;;;1.40;;
75005;SDS011;63553;51.814;4.600;2023-03-12T07:14:33;1.50;;;1.40;;
75005;SDS011;63553;51.814;4.600;2023-03-12T07:16:58;1.50;;;1.40;;
75005;SDS011;63553;51.814;4.600;2023-03-12T07:19:25;1.30;;;1.20;;
75005;SDS011;63553;51.814;4.600;2023-03-12T07:21:51;1.75;;;1.40;;
75005;SDS011;63553;51.814;4.600;2023-03-12T07:24:17;3.28;;;1.60;;
75005;SDS011;63553;51.814;4.600;2023-03-12T07:26:42;1.60;;;1.50;;
75005;SDS011;63553;51.814;4.600;2023-03-12T07:29:07;1.30;;;1.20;;
75005;SDS011;63553;51.814;4.600;2023-03-12T07:31:33;1.83;;;1.60;;
75005;SDS011;63553;51.814;4.600;2023-03-12T07:33:58;1.80;;;1.43;;
75005;SDS011;63553;51.814;4.600;2023-03-12T07:36:24;1.70;;;1.58;;
75005;SDS011;63553;51.814;4.600;2023-03-12T07:38:49;1.60;;;1.50;;
75005;SDS011;63553;51.814;4.600;2023-03-12T07:41:15;1.33;;;1.33;;
75005;SDS011;63553;51.814;4.600;2023-03-12T07:43:40;1.67;;;1.58;;
75005;SDS011;63553;51.814;4.600;2023-03-12T07:46:06;2.07;;;1.50;;
75005;SDS011;63553;51.814;4.600;2023-03-12T07:48:31;1.50;;;1.40;;
75005;SDS011;63553;51.814;4.600;2023-03-12T07:50:56;1.40;;;1.30;;
75005;SDS011;63553;51.814;4.600;2023-03-12T07:53:22;2.27;;;1.63;;
75005;SDS011;63553;51.814;4.600;2023-03-12T07:55:47;1.17;;;1.17;;
75005;SDS011;63553;51.814;4.600;2023-03-12T07:58:13;2.28;;;1.67;;
75005;SDS011;63553;51.814;4.600;2023-03-12T08:00:41;1.63;;;1.52;;
75005;SDS011;63553;51.814;4.600;2023-03-12T08:03:07;2.13;;;1.42;;
75005;SDS011;63553;51.814;4.600;2023-03-12T08:05:32;1.97;;;1.70;;
75005;SDS011;63553;51.814;4.600;2023-03-12T08:07:58;3.33;;;1.90;;
75005;SDS011;63553;51.814;4.600;2023-03-12T08:10:23;1.58;;;1.48;;
75005;SDS011;63553;51.814;4.600;2023-03-12T08:12:49;2.05;;;1.90;;
75005;SDS011;63553;51.814;4.600;2023-03-12T08:15:14;1.63;;;1.52;;
75005;SDS011;63553;51.814;4.600;2023-03-12T08:17:40;1.83;;;1.63;;
75005;SDS011;63553;51.814;4.600;2023-03-12T08:20:06;1.60;;;1.50;;
75005;SDS011;63553;51.814;4.600;2023-03-12T08:22:34;1.70;;;1.60;;
75005;SDS011;63553;51.814;4.600;2023-03-12T08:25:02;1.83;;;1.60;;
75005;SDS011;63553;51.814;4.600;2023-03-12T08:27:28;1.70;;;1.60;;
75005;SDS011;63553;51.814;4.600;2023-03-12T08:29:54;1.67;;;1.52;;
75005;SDS011;63553;51.814;4.600;2023-03-12T08:32:19;1.85;;;1.52;;
75005;SDS011;63553;51.814;4.600;2023-03-12T08:34:45;1.77;;;1.67;;
75005;SDS011;63553;51.814;4.600;2023-03-12T08:37:10;1.63;;;1.52;;
75005;SDS011;63553;51.814;4.600;2023-03-12T08:39:35;1.70;;;1.60;;
75005;SDS011;63553;51.814;4.600;2023-03-12T08:42:01;1.70;;;1.60;;
75005;SDS011;63553;51.814;4.600;2023-03-12T08:44:26;1.92;;;1.80;;
75005;SDS011;63553;51.814;4.600;2023-03-12T08:46:52;2.05;;;1.92;;
75005;SDS011;63553;51.814;4.600;2023-03-12T08:49:17;2.13;;;1.88;;
75005;SDS011;63553;51.814;4.600;2023-03-12T08:51:44;2.08;;;1.88;;
75005;SDS011;63553;51.814;4.600;2023-03-12T08:54:10;1.48;;;1.38;;
75005;SDS011;63553;51.814;4.600;2023-03-12T08:56:35;2.20;;;1.73;;
75005;SDS011;63553;51.814;4.600;2023-03-12T08:59:05;1.92;;;1.83;;
75005;SDS011;63553;51.814;4.600;2023-03-12T09:01:31;1.98;;;1.88;;
75005;SDS011;63553;51.814;4.600;2023-03-12T09:03:56;2.53;;;2.13;;
75005;SDS011;63553;51.814;4.600;2023-03-12T09:06:22;2.30;;;1.97;;
75005;SDS011;63553;51.814;4.600;2023-03-12T09:08:50;1.70;;;1.60;;
75005;SDS011;63553;51.814;4.600;2023-03-12T09:11:15;3.20;;;2.20;;
75005;SDS011;63553;51.814;4.600;2023-03-12T09:13:41;2.35;;;2.08;;
75005;SDS011;63553;51.814;4.600;2023-03-12T09:16:07;1.77;;;1.67;;
75005;SDS011;63553;51.814;4.600;2023-03-12T09:18:33;2.28;;;2.08;;
75005;SDS011;63553;51.814;4.600;2023-03-12T09:20:59;2.42;;;2.22;;
75005;SDS011;63553;51.814;4.600;2023-03-12T09:23:25;3.53;;;2.00;;
75005;SDS011;63553;51.814;4.600;2023-03-12T09:25:52;1.88;;;1.77;;
75005;SDS011;63553;51.814;4.600;2023-03-12T09:28:17;2.80;;;2.20;;
75005;SDS011;63553;51.814;4.600;2023-03-12T09:30:43;2.03;;;1.83;;
75005;SDS011;63553;51.814;4.600;2023-03-12T09:33:09;2.08;;;1.88;;
75005;SDS011;63553;51.814;4.600;2023-03-12T09:35:35;2.00;;;1.80;;
75005;SDS011;63553;51.814;4.600;2023-03-12T09:38:00;3.35;;;2.03;;
75005;SDS011;63553;51.814;4.600;2023-03-12T09:40:29;2.50;;;2.15;;
75005;SDS011;63553;51.814;4.600;2023-03-12T09:45:41;2.28;;;2.08;;
75005;SDS011;63553;51.814;4.600;2023-03-12T09:48:16;2.40;;;2.10;;
75005;SDS011;63553;51.814;4.600;2023-03-12T09:50:48;2.25;;;2.05;;
75005;SDS011;63553;51.814;4.600;2023-03-12T09:53:31;2.58;;;2.00;;
75005;SDS011;63553;51.814;4.600;2023-03-12T09:56:02;2.05;;;1.67;;
75005;SDS011;63553;51.814;4.600;2023-03-12T09:58:35;2.40;;;2.20;;
75005;SDS011;63553;51.814;4.600;2023-03-12T10:03:49;1.83;;;1.63;;
75005;SDS011;63553;51.814;4.600;2023-03-12T10:06:21;2.60;;;1.90;;
75005;SDS011;63553;51.814;4.600;2023-03-12T10:28:38;3.05;;;1.65;;
75005;SDS011;63553;51.814;4.600;2023-03-12T10:31:29;2.47;;;1.90;;
75005;SDS011;63553;51.814;4.600;2023-03-12T10:34:14;2.10;;;1.70;;
75005;SDS011;63553;51.814;4.600;2023-03-12T10:36:45;2.42;;;1.77;;
75005;SDS011;63553;51.814;4.600;2023-03-12T10:39:12;2.17;;;1.60;;
75005;SDS011;63553;51.814;4.600;2023-03-12T10:41:40;3.30;;;1.85;;
75005;SDS011;63553;51.814;4.600;2023-03-12T10:44:10;4.55;;;2.03;;
75005;SDS011;63553;51.814;4.600;2023-03-12T10:46:54;2.45;;;1.88;;
75005;SDS011;63553;51.814;4.600;2023-03-12T10:49:27;3.08;;;1.70;;
75005;SDS011;63553;51.814;4.600;2023-03-12T10:54:50;4.20;;;1.63;;
75005;SDS011;63553;51.814;4.600;2023-03-12T10:57:17;5.75;;;1.80;;
75005;SDS011;63553;51.814;4.600;2023-03-12T10:59:44;4.28;;;1.85;;
75005;SDS011;63553;51.814;4.600;2023-03-12T11:02:24;4.57;;;1.88;;
75005;SDS011;63553;51.814;4.600;2023-03-12T11:04:52;3.33;;;1.65;;
75005;SDS011;63553;51.814;4.600;2023-03-12T11:07:24;4.55;;;1.90;;
75005;SDS011;63553;51.814;4.600;2023-03-12T11:12:31;4.55;;;2.10;;
75005;SDS011;63553;51.814;4.600;2023-03-12T11:14:58;5.22;;;1.95;;
75005;SDS011;63553;51.814;4.600;2023-03-12T11:17:25;7.25;;;2.15;;
75005;SDS011;63553;51.814;4.600;2023-03-12T11:19:52;4.45;;;1.98;;
75005;SDS011;63553;51.814;4.600;2023-03-12T11:22:28;4.97;;;2.08;;
75005;SDS011;63553;51.814;4.600;2023-03-12T11:24:58;4.05;;;2.00;;
75005;SDS011;63553;51.814;4.600;2023-03-12T11:27:26;5.65;;;2.05;;
75005;SDS011;63553;51.814;4.600;2023-03-12T11:30:01;5.53;;;2.25;;
75005;SDS011;63553;51.814;4.600;2023-03-12T11:32:33;4.82;;;1.77;;
75005;SDS011;63553;51.814;4.600;2023-03-12T11:35:01;4.82;;;1.92;;
75005;SDS011;63553;51.814;4.600;2023-03-12T11:48:42;4.57;;;1.73;;
75005;SDS011;63553;51.814;4.600;2023-03-12T11:51:21;6.15;;;1.92;;
75005;SDS011;63553;51.814;4.600;2023-03-12T11:53:56;4.72;;;2.50;;
75005;SDS011;63553;51.814;4.600;2023-03-12T11:56:38;5.60;;;2.25;;
75005;SDS011;63553;51.814;4.600;2023-03-12T12:10:21;7.18;;;2.20;;
75005;SDS011;63553;51.814;4.600;2023-03-12T12:21:29;6.45;;;2.70;;
75005;SDS011;63553;51.814;4.600;2023-03-12T12:26:59;7.07;;;2.45;;
75005;SDS011;63553;51.814;4.600;2023-03-12T12:35:03;7.97;;;2.25;;
75005;SDS011;63553;51.814;4.600;2023-03-12T12:37:47;9.90;;;2.42;;
75005;SDS011;63553;51.814;4.600;2023-03-12T12:42:53;6.97;;;2.50;;
75005;SDS011;63553;51.814;4.600;2023-03-12T12:45:20;10.13;;;2.22;;
75005;SDS011;63553;51.814;4.600;2023-03-12T12:47:56;5.13;;;1.83;;
75005;SDS011;63553;51.814;4.600;2023-03-12T12:50:28;7.90;;;2.47;;
75005;SDS011;63553;51.814;4.600;2023-03-12T12:53:20;8.93;;;2.28;;
75005;SDS011;63553;51.814;4.600;2023-03-12T13:01:30;5.90;;;1.95;;
75005;SDS011;63553;51.814;4.600;2023-03-12T13:04:11;6.97;;;2.20;;
75005;SDS011;63553;51.814;4.600;2023-03-12T13:06:59;6.60;;;2.28;;
75005;SDS011;63553;51.814;4.600;2023-03-12T13:09:46;6.05;;;1.92;;
75005;SDS011;63553;51.814;4.600;2023-03-12T13:14:49;5.25;;;2.10;;
75005;SDS011;63553;51.814;4.600;2023-03-12T13:19:57;5.47;;;1.80;;
75005;SDS011;63553;51.814;4.600;2023-03-12T13:30:51;4.90;;;2.00;;
75005;SDS011;63553;51.814;4.600;2023-03-12T13:33:17;6.20;;;2.67;;
75005;SDS011;63553;51.814;4.600;2023-03-12T13:36:05;4.68;;;1.92;;
75005;SDS011;63553;51.814;4.600;2023-03-12T13:41:31;8.13;;;2.40;;
75005;SDS011;63553;51.814;4.600;2023-03-12T13:43:59;8.25;;;2.42;;
75005;SDS011;63553;51.814;4.600;2023-03-12T13:46:45;4.55;;;2.10;;
75005;SDS011;63553;51.814;4.600;2023-03-12T13:49:11;4.37;;;1.97;;
75005;SDS011;63553;51.814;4.600;2023-03-12T13:51:46;4.00;;;2.00;;
75005;SDS011;63553;51.814;4.600;2023-03-12T13:54:19;5.82;;;2.20;;
75005;SDS011;63553;51.814;4.600;2023-03-12T13:56:56;6.30;;;2.38;;
75005;SDS011;63553;51.814;4.600;2023-03-12T13:59:25;7.05;;;2.25;;
75005;SDS011;63553;51.814;4.600;2023-03-12T14:01:53;6.45;;;2.30;;
75005;SDS011;63553;51.814;4.600;2023-03-12T14:04:24;4.90;;;2.17;;
75005;SDS011;63553;51.814;4.600;2023-03-12T14:09:49;8.10;;;2.45;;
75005;SDS011;63553;51.814;4.600;2023-03-12T14:12:27;5.93;;;2.45;;
75005;SDS011;63553;51.814;4.600;2023-03-12T14:17:42;8.43;;;2.20;;
75005;SDS011;63553;51.814;4.600;2023-03-12T14:20:10;5.40;;;2.03;;
75005;SDS011;63553;51.814;4.600;2023-03-12T14:22:51;4.10;;;2.22;;
75005;SDS011;63553;51.814;4.600;2023-03-12T14:25:27;7.43;;;2.50;;
75005;SDS011;63553;51.814;4.600;2023-03-12T14:27:58;6.78;;;2.10;;
75005;SDS011;63553;51.814;4.600;2023-03-12T14:30:27;5.68;;;2.20;;
75005;SDS011;63553;51.814;4.600;2023-03-12T14:33:03;6.75;;;2.55;;
75005;SDS011;63553;51.814;4.600;2023-03-12T14:35:35;5.95;;;2.15;;
75005;SDS011;63553;51.814;4.600;2023-03-12T14:38:05;5.85;;;2.20;;
75005;SDS011;63553;51.814;4.600;2023-03-12T14:43:23;7.35;;;2.08;;
75005;SDS011;63553;51.814;4.600;2023-03-12T14:45:59;7.00;;;2.28;;
75005;SDS011;63553;51.814;4.600;2023-03-12T14:48:29;6.75;;;2.42;;
75005;SDS011;63553;51.814;4.600;2023-03-12T14:50:56;6.10;;;2.13;;
75005;SDS011;63553;51.814;4.600;2023-03-12T14:53:24;11.57;;;2.95;;
75005;SDS011;63553;51.814;4.600;2023-03-12T14:58:29;8.30;;;2.15;;
75005;SDS011;63553;51.814;4.600;2023-03-12T15:00:57;8.63;;;2.25;;
75005;SDS011;63553;51.814;4.600;2023-03-12T15:03:27;7.13;;;2.33;;
75005;SDS011;63553;51.814;4.600;2023-03-12T15:05:53;6.63;;;2.30;;
75005;SDS011;63553;51.814;4.600;2023-03-12T15:08:20;8.43;;;2.42;;
75005;SDS011;63553;51.814;4.600;2023-03-12T15:10:49;9.45;;;2.30;;
75005;SDS011;63553;51.814;4.600;2023-03-12T15:13:17;7.70;;;2.25;;
75005;SDS011;63553;51.814;4.600;2023-03-12T15:15:52;4.75;;;2.13;;
75005;SDS011;63553;51.814;4.600;2023-03-12T15:20:52;9.00;;;2.70;;
75005;SDS011;63553;51.814;4.600;2023-03-12T15:23:19;7.07;;;2.47;;
75005;SDS011;63553;51.814;4.600;2023-03-12T15:25:47;7.03;;;2.10;;
75005;SDS011;63553;51.814;4.600;2023-03-12T15:30:38;7.07;;;2.30;;
75005;SDS011;63553;51.814;4.600;2023-03-12T15:33:08;6.05;;;2.60;;
75005;SDS011;63553;51.814;4.600;2023-03-12T15:36:00;6.65;;;2.08;;
75005;SDS011;63553;51.814;4.600;2023-03-12T15:38:29;7.50;;;2.40;;
75005;SDS011;63553;51.814;4.600;2023-03-12T15:40:58;6.20;;;2.10;;
75005;SDS011;63553;51.814;4.600;2023-03-12T15:43:30;8.23;;;2.70;;
75005;SDS011;63553;51.814;4.600;2023-03-12T15:46:00;7.72;;;2.15;;
75005;SDS011;63553;51.814;4.600;2023-03-12T15:48:35;8.05;;;2.20;;
75005;SDS011;63553;51.814;4.600;2023-03-12T15:51:13;6.28;;;2.00;;
75005;SDS011;63553;51.814;4.600;2023-03-12T15:53:57;7.95;;;2.60;;
75005;SDS011;63553;51.814;4.600;2023-03-12T15:56:23;6.90;;;2.55;;
75005;SDS011;63553;51.814;4.600;2023-03-12T15:59:17;5.90;;;2.37;;
75005;SDS011;63553;51.814;4.600;2023-03-12T16:01:48;5.70;;;2.38;;
75005;SDS011;63553;51.814;4.600;2023-03-12T16:04:15;6.47;;;2.30;;
75005;SDS011;63553;51.814;4.600;2023-03-12T16:06:41;7.35;;;2.50;;
75005;SDS011;63553;51.814;4.600;2023-03-12T16:09:08;6.07;;;2.58;;
75005;SDS011;63553;51.814;4.600;2023-03-12T16:11:39;6.88;;;2.40;;
75005;SDS011;63553;51.814;4.600;2023-03-12T16:16:43;9.52;;;2.80;;
75005;SDS011;63553;51.814;4.600;2023-03-12T16:19:16;8.00;;;2.65;;
75005;SDS011;63553;51.814;4.600;2023-03-12T16:21:43;8.20;;;3.20;;
75005;SDS011;63553;51.814;4.600;2023-03-12T16:24:09;10.23;;;2.97;;
75005;SDS011;63553;51.814;4.600;2023-03-12T16:26:36;8.75;;;2.70;;
75005;SDS011;63553;51.814;4.600;2023-03-12T16:29:20;7.40;;;2.60;;
75005;SDS011;63553;51.814;4.600;2023-03-12T16:31:51;6.68;;;2.70;;
75005;SDS011;63553;51.814;4.600;2023-03-12T16:34:19;12.75;;;2.60;;
75005;SDS011;63553;51.814;4.600;2023-03-12T16:36:44;10.80;;;2.80;;
75005;SDS011;63553;51.814;4.600;2023-03-12T16:39:10;6.07;;;2.53;;
75005;SDS011;63553;51.814;4.600;2023-03-12T16:41:35;7.55;;;2.78;;
75005;SDS011;63553;51.814;4.600;2023-03-12T16:44:00;8.37;;;2.53;;
75005;SDS011;63553;51.814;4.600;2023-03-12T16:46:29;7.07;;;2.78;;
75005;SDS011;63553;51.814;4.600;2023-03-12T16:48:56;5.97;;;2.53;;
75005;SDS011;63553;51.814;4.600;2023-03-12T16:51:22;10.27;;;3.30;;
75005;SDS011;63553;51.814;4.600;2023-03-12T16:53:47;10.57;;;3.15;;
75005;SDS011;63553;51.814;4.600;2023-03-12T16:56:14;9.27;;;2.50;;
75005;SDS011;63553;51.814;4.600;2023-03-12T16:58:42;9.60;;;2.90;;